createdAt,value
2022-09-14T00:03:20.823Z,65.38
2022-09-14T00:08:52.605Z,65.20
2022-09-14T00:14:24.284Z,65.05
2022-09-14T00:19:55.573Z,65.02
2022-09-14T00:25:26.885Z,64.94
2022-09-14T00:30:58.689Z,64.94
2022-09-14T00:36:30.667Z,65.02
2022-09-14T00:42:02.329Z,65.17
2022-09-14T00:47:33.987Z,65.24
2022-09-14T00:53:05.652Z,65.28
2022-09-14T00:58:37.244Z,65.35
2022-09-14T01:04:08.764Z,65.75
2022-09-14T01:09:40.428Z,65.78
2022-09-14T01:15:12.144Z,65.81
2022-09-14T01:20:43.940Z,66.16
2022-09-14T01:26:15.619Z,66.93
2022-09-14T01:31:47.033Z,68.41
2022-09-14T01:37:18.803Z,68.03
2022-09-14T01:42:50.568Z,67.30
2022-09-14T01:53:51.454Z,67.35
2022-09-14T01:59:23.257Z,67.15
2022-09-14T02:04:55.053Z,66.74
2022-09-14T02:15:55.815Z,66.74
2022-09-14T02:21:27.081Z,66.63
2022-09-14T02:37:56.918Z,66.54
2022-09-14T02:43:28.218Z,66.52
2022-09-14T02:48:59.520Z,66.42
2022-09-14T02:54:30.997Z,66.61
2022-09-14T03:05:31.255Z,66.48
2022-09-14T03:11:02.663Z,66.35
2022-09-14T03:16:34.099Z,66.38
2022-09-14T03:22:05.698Z,66.33
2022-09-14T03:27:37.102Z,66.38
2022-09-14T03:38:39.809Z,66.66
2022-09-14T04:00:39.560Z,66.90
2022-09-14T04:06:11.192Z,66.86
2022-09-14T04:11:42.618Z,66.87
2022-09-14T04:17:14.252Z,67.10
2022-09-14T04:22:45.594Z,67.09
2022-09-14T04:39:15.889Z,66.71
2022-09-14T04:50:18.452Z,67.18
2022-09-14T04:55:49.733Z,67.16
2022-09-14T05:01:21.262Z,67.20
2022-09-14T05:06:52.735Z,67.35
2022-09-14T05:12:24.095Z,67.20
2022-09-14T05:17:55.461Z,67.07
2022-09-14T05:28:56.181Z,67.13
2022-09-14T05:34:27.499Z,67.12
2022-09-14T05:39:59.021Z,66.98
2022-09-14T05:45:30.193Z,66.98
2022-09-14T05:51:01.482Z,66.80
2022-09-14T05:58:53.266Z,66.67
2022-09-14T06:04:25.062Z,66.64
2022-09-14T06:15:25.619Z,67.16
2022-09-14T06:20:56.990Z,68.08
2022-09-14T06:26:28.351Z,68.10
2022-09-14T06:31:59.773Z,67.97
2022-09-14T06:37:31.080Z,67.85
2022-09-14T06:43:02.460Z,67.75
2022-09-14T06:48:34.326Z,67.62
2022-09-14T06:54:05.980Z,67.38
2022-09-14T06:59:37.327Z,67.19
2022-09-14T07:05:09.127Z,66.62
2022-09-14T07:10:40.383Z,66.37
2022-09-14T07:21:41.695Z,65.78
2022-09-14T07:27:13.344Z,65.54
2022-09-14T07:32:45.096Z,65.42
2022-09-14T07:38:27.070Z,65.09
2022-09-14T07:43:50.046Z,64.56
2022-09-14T07:49:21.906Z,61.15
2022-09-14T08:00:24.992Z,57.03
2022-09-14T08:05:57.082Z,56.31
2022-09-14T08:11:28.769Z,54.47
2022-09-14T08:17:00.642Z,54.70
2022-09-14T08:22:32.068Z,53.77
2022-09-14T08:28:03.661Z,53.02
2022-09-14T08:33:35.112Z,52.55
2022-09-14T08:39:06.605Z,52.07
2022-09-14T08:44:38.394Z,49.20
2022-09-14T08:50:09.654Z,48.37
2022-09-14T08:55:40.796Z,46.28
2022-09-14T09:01:12.248Z,46.05
2022-09-14T09:06:43.388Z,45.07
2022-09-14T09:12:14.860Z,44.34
2022-09-14T09:17:46.337Z,44.70
2022-09-14T09:23:17.915Z,44.38
2022-09-14T09:28:49.168Z,42.87
2022-09-14T09:34:20.550Z,42.64
2022-09-14T09:39:51.971Z,43.99
2022-09-14T09:50:52.958Z,45.35
2022-09-14T09:56:24.262Z,45.77
2022-09-14T10:07:27.407Z,46.49
2022-09-14T10:12:59.183Z,45.82
2022-09-14T10:18:30.782Z,46.13
2022-09-14T10:24:02.478Z,45.89
2022-09-14T10:29:33.970Z,45.41
2022-09-14T10:35:05.483Z,44.85
2022-09-14T10:40:37.094Z,45.43
2022-09-14T10:46:08.355Z,46.34
2022-09-14T10:51:39.737Z,46.82
2022-09-14T10:57:11.138Z,46.44
2022-09-14T11:02:42.445Z,46.33
2022-09-14T11:08:13.686Z,45.89
2022-09-14T11:13:45.362Z,46.29
2022-09-14T11:19:16.874Z,46.56
2022-09-14T11:24:48.100Z,47.25
2022-09-14T11:30:19.442Z,47.61
2022-09-14T11:35:50.742Z,48.13
2022-09-14T11:41:22.512Z,48.42
2022-09-14T11:46:57.562Z,48.72
2022-09-14T11:49:17.334Z,48.99
2022-09-14T11:54:48.650Z,48.68
2022-09-14T12:00:20.051Z,47.92
2022-09-14T12:05:51.362Z,47.61
2022-09-14T12:11:22.771Z,46.40
2022-09-14T12:16:54.255Z,46.51
2022-09-14T12:22:25.728Z,46.33
2022-09-14T12:27:57.202Z,45.64
2022-09-14T12:33:28.403Z,45.88
2022-09-14T12:38:59.799Z,45.73
2022-09-14T12:50:00.503Z,45.54
2022-09-14T12:55:31.904Z,45.78
2022-09-14T13:01:03.167Z,46.20
2022-09-14T13:06:34.483Z,45.83
2022-09-14T13:12:05.838Z,45.85
2022-09-14T13:17:37.597Z,45.97
2022-09-14T13:23:08.917Z,46.37
2022-09-14T13:28:40.304Z,46.83
2022-09-14T13:34:11.466Z,47.08
2022-09-14T13:39:45.124Z,47.02
2022-09-14T13:45:18.521Z,47.24
2022-09-14T13:50:50.009Z,47.87
2022-09-14T13:56:21.239Z,48.10
2022-09-14T14:07:22.157Z,48.81
2022-09-14T14:12:53.308Z,49.25
2022-09-14T14:18:24.782Z,49.78
2022-09-14T14:24:12.725Z,50.20
2022-09-14T14:29:28.139Z,50.28
2022-09-14T14:34:59.619Z,50.77
2022-09-14T14:40:31.323Z,50.69
2022-09-14T14:46:02.694Z,50.70
2022-09-14T14:59:23.081Z,0.00
2022-09-14T15:04:54.470Z,50.93
2022-09-14T15:10:25.760Z,50.28
2022-09-14T15:15:57.143Z,50.93
2022-09-14T15:34:47.560Z,55.75
2022-09-14T15:40:18.985Z,56.94
2022-09-14T15:45:50.641Z,57.60
2022-09-14T15:56:51.590Z,60.56
2022-09-14T16:04:43.365Z,63.18
2022-09-14T16:15:44.321Z,66.41
2022-09-14T16:21:16.176Z,67.13
2022-09-14T16:26:48.159Z,67.72
2022-09-14T16:34:25.040Z,0.00
2022-09-14T16:39:56.137Z,68.79
2022-09-14T16:45:27.638Z,69.41
2022-09-14T16:50:59.190Z,69.27
2022-09-14T17:07:29.525Z,70.13
2022-09-14T17:13:01.279Z,70.21
2022-09-14T17:18:32.660Z,70.16
2022-09-14T17:29:33.303Z,71.12
2022-09-14T17:35:04.700Z,71.30
2022-09-14T17:40:36.071Z,71.36
2022-09-14T17:46:07.140Z,71.81
2022-09-14T17:51:38.867Z,71.84
2022-09-14T17:57:10.614Z,72.71
2022-09-14T18:02:41.901Z,72.77
2022-09-14T18:08:13.110Z,72.35
2022-09-14T18:13:44.449Z,72.54
2022-09-14T18:19:15.746Z,72.34
2022-09-14T18:24:47.450Z,72.30
2022-09-14T18:30:18.910Z,72.22
2022-09-14T18:35:50.234Z,72.53
2022-09-14T18:46:51.468Z,72.27
2022-09-14T18:52:22.965Z,72.15
2022-09-14T18:57:54.191Z,72.09
2022-09-14T19:03:26.228Z,71.99
2022-09-14T19:08:57.794Z,71.70
2022-09-14T19:14:29.652Z,71.84
2022-09-14T19:20:02.225Z,71.54
2022-09-14T19:25:33.747Z,71.54
2022-09-14T19:31:05.684Z,71.59
2022-09-14T19:36:37.501Z,71.79
2022-09-14T19:42:09.422Z,71.41
2022-09-14T19:47:40.897Z,71.20
2022-09-14T19:53:12.254Z,70.97
2022-09-14T19:58:44.311Z,70.91
2022-09-14T20:04:15.701Z,70.71
2022-09-14T20:09:47.157Z,70.72
2022-09-14T20:15:18.494Z,70.63
2022-09-14T20:20:49.835Z,70.55
2022-09-14T20:26:21.653Z,70.49
2022-09-14T20:31:53.135Z,70.45
2022-09-14T20:37:24.711Z,70.38
2022-09-14T20:42:55.919Z,70.38
2022-09-14T20:48:27.493Z,70.48
2022-09-14T20:53:59.023Z,70.48
2022-09-14T20:59:30.260Z,70.42
2022-09-14T21:05:01.625Z,70.51
2022-09-14T21:10:32.901Z,70.58
2022-09-14T21:16:04.574Z,70.60
2022-09-14T21:21:36.057Z,70.65
2022-09-14T21:27:07.363Z,70.69
2022-09-14T21:32:38.592Z,70.72
2022-09-14T21:38:09.711Z,70.83
2022-09-14T21:43:41.005Z,70.86
2022-09-14T21:49:12.537Z,70.99
2022-09-14T21:54:44.197Z,71.25
2022-09-14T22:00:15.498Z,71.19
2022-09-14T22:05:46.899Z,71.31
2022-09-14T22:11:21.156Z,71.31
2022-09-14T22:16:49.529Z,71.41
2022-09-14T22:22:21.137Z,71.35
2022-09-14T22:27:52.806Z,71.40
2022-09-14T22:33:24.694Z,71.45
2022-09-14T22:38:56.359Z,71.63
2022-09-14T22:44:27.970Z,71.62
2022-09-14T22:49:59.629Z,71.68
2022-09-14T22:55:31.491Z,71.51
2022-09-14T23:01:03.222Z,71.46
2022-09-14T23:06:34.730Z,71.51
2022-09-14T23:12:06.208Z,71.71
2022-09-14T23:17:37.512Z,71.68
2022-09-14T23:23:08.886Z,71.50
2022-09-14T23:28:40.294Z,71.36
2022-09-14T23:34:11.975Z,71.17
2022-09-14T23:39:43.270Z,71.07
2022-09-14T23:45:14.565Z,70.83
2022-09-14T23:50:46.204Z,70.78
2022-09-14T23:56:17.547Z,70.67
